Searles, Minnesota
Current Conditions -  °F | °C
As of 5:54 AM on Thursday 23 Oct 2014 (Local Time) from KULM Reporting Station
Moderate Fog Moderate Fog  
Wind Chill: 50°   Ceiling: 500
Heat Index: 50°   Visibility: 0.5mi
Dew Point: 50°   Wind: 5mph
Humidity: 100%   Direction: 250°WSW
Pressure: 29.99"   Gusts: NA
Location:  44.23°N, 94.44°W
Report Text: KULM 231054Z AUTO 25004KT 1/2SM FG VV005 10/10 A2999 RMK AO2
Loading
Personal Weather Stations






























Interactive Weather Map
Tropical Storm Tracking
New forecast layout! Learn more

10-Day Weather Forecast

Advertisements
Track Severe Weather on mobile